createdAt,value
2023-04-19T00:00:08.208Z,43.20
2023-04-19T00:03:01.289Z,43.20
2023-04-19T00:05:55.034Z,43.20
2023-04-19T00:08:49.409Z,43.20
2023-04-19T00:11:43.003Z,44.00
2023-04-19T00:14:36.140Z,44.60
2023-04-19T00:17:29.085Z,43.60
2023-04-19T00:20:22.288Z,43.50
2023-04-19T00:23:15.914Z,43.50
2023-04-19T00:26:11.466Z,43.50
2023-04-19T00:29:04.721Z,43.50
2023-04-19T00:31:58.125Z,43.50
2023-04-19T00:34:51.088Z,43.60
2023-04-19T00:37:43.949Z,43.60
2023-04-19T00:40:38.216Z,43.60
2023-04-19T00:43:32.347Z,43.60
2023-04-19T00:46:26.909Z,43.60
2023-04-19T00:49:23.163Z,43.60
2023-04-19T00:52:16.184Z,43.60
2023-04-19T00:55:09.834Z,43.70
2023-04-19T00:58:03.579Z,43.70
2023-04-19T01:00:58.333Z,43.70
2023-04-19T01:03:52.265Z,43.70
2023-04-19T01:06:45.846Z,43.70
2023-04-19T01:09:42.480Z,43.80
2023-04-19T01:12:36.537Z,43.80
2023-04-19T01:15:29.811Z,43.80
2023-04-19T01:18:25.674Z,43.90
2023-04-19T01:21:18.594Z,43.90
2023-04-19T01:24:13.511Z,43.90
2023-04-19T01:27:07.044Z,43.90
2023-04-19T01:30:00.051Z,43.90
2023-04-19T01:32:53.057Z,45.10
2023-04-19T01:35:45.806Z,45.00
2023-04-19T01:38:39.169Z,44.20
2023-04-19T01:41:33.172Z,44.00
2023-04-19T01:44:26.004Z,44.00
2023-04-19T01:47:19.097Z,44.00
2023-04-19T01:50:12.320Z,44.00
2023-04-19T01:53:05.172Z,44.00
2023-04-19T01:55:57.968Z,44.10
2023-04-19T01:58:52.431Z,44.10
2023-04-19T02:01:46.004Z,44.10
2023-04-19T02:04:39.306Z,44.10
2023-04-19T02:07:32.090Z,44.10
2023-04-19T02:10:25.010Z,44.10
2023-04-19T02:13:18.113Z,44.10
2023-04-19T02:16:12.950Z,44.10
2023-04-19T02:19:06.005Z,44.10
2023-04-19T02:21:58.731Z,44.10
2023-04-19T02:24:52.314Z,44.20
2023-04-19T02:27:45.169Z,44.10
2023-04-19T02:30:38.159Z,44.20
2023-04-19T02:33:32.530Z,44.20
2023-04-19T02:36:26.247Z,44.20
2023-04-19T02:39:19.461Z,44.20
2023-04-19T02:42:12.918Z,44.30
2023-04-19T02:45:06.744Z,44.30
2023-04-19T02:47:59.817Z,44.30
2023-04-19T02:50:54.513Z,44.30
2023-04-19T02:53:48.213Z,44.40
2023-04-19T02:56:41.472Z,44.40
2023-04-19T02:59:35.300Z,44.40
2023-04-19T03:02:28.078Z,44.40
2023-04-19T03:05:20.966Z,44.40
2023-04-19T03:08:15.453Z,44.40
2023-04-19T03:11:09.040Z,44.40
2023-04-19T03:14:01.910Z,44.40
2023-04-19T03:16:55.036Z,44.40
2023-04-19T03:19:48.385Z,44.40
2023-04-19T03:22:41.076Z,44.40
2023-04-19T03:25:35.772Z,44.40
2023-04-19T03:28:29.175Z,44.50
2023-04-19T03:31:22.057Z,44.50
2023-04-19T03:34:15.381Z,44.50
2023-04-19T03:37:09.273Z,44.60
2023-04-19T03:40:02.297Z,44.70
2023-04-19T03:42:56.263Z,44.70
2023-04-19T03:45:49.243Z,44.80
2023-04-19T03:48:42.203Z,44.80
2023-04-19T03:51:35.104Z,44.80
2023-04-19T03:54:28.030Z,44.90
2023-04-19T03:57:22.102Z,44.90
2023-04-19T04:00:17.616Z,45.00
2023-04-19T04:03:11.216Z,45.00
2023-04-19T04:06:05.165Z,45.10
2023-04-19T04:08:58.125Z,45.10
2023-04-19T04:11:51.132Z,45.10
2023-04-19T04:14:44.103Z,45.20
2023-04-19T04:17:38.333Z,45.20
2023-04-19T04:20:31.520Z,45.20
2023-04-19T04:23:26.332Z,45.20
2023-04-19T04:26:21.728Z,45.20
2023-04-19T04:29:15.452Z,45.20
2023-04-19T04:32:13.658Z,45.20
2023-04-19T04:35:10.769Z,45.20
2023-04-19T04:38:11.038Z,45.20
2023-04-19T04:41:07.539Z,45.20
2023-04-19T04:44:12.470Z,45.20
2023-04-19T04:47:07.151Z,45.30
2023-04-19T04:50:00.424Z,45.30
2023-04-19T04:52:54.845Z,45.30
2023-04-19T04:55:48.304Z,45.30
2023-04-19T04:58:41.172Z,45.30
2023-04-19T05:01:34.134Z,45.30
2023-04-19T05:04:27.181Z,45.30
2023-04-19T05:07:20.027Z,45.30
2023-04-19T05:10:14.161Z,45.30
2023-04-19T05:13:07.313Z,45.30
2023-04-19T05:16:00.283Z,45.20
2023-04-19T05:18:53.485Z,45.20
2023-04-19T05:21:46.315Z,45.20
2023-04-19T05:24:41.130Z,45.20
2023-04-19T05:27:36.808Z,45.20
2023-04-19T05:30:30.225Z,45.10
2023-04-19T05:33:23.263Z,45.10
2023-04-19T05:36:16.193Z,45.10
2023-04-19T05:39:09.811Z,45.10
2023-04-19T05:42:03.067Z,45.00
2023-04-19T05:44:57.362Z,45.00
2023-04-19T05:47:50.292Z,45.00
2023-04-19T05:50:43.319Z,45.00
2023-04-19T05:53:36.215Z,45.00
2023-04-19T05:56:29.465Z,44.90
2023-04-19T05:59:22.112Z,45.00
2023-04-19T06:02:19.763Z,44.90
2023-04-19T06:05:13.572Z,44.90
2023-04-19T06:08:07.114Z,44.90
2023-04-19T06:11:05.258Z,44.90
2023-04-19T06:14:09.629Z,44.80
2023-04-19T06:17:03.290Z,44.80
2023-04-19T06:19:57.862Z,44.80
2023-04-19T06:22:51.190Z,44.80
2023-04-19T06:25:43.934Z,44.80
2023-04-19T06:28:36.944Z,44.80
2023-04-19T06:31:30.278Z,44.80
2023-04-19T06:34:23.016Z,44.80
2023-04-19T06:37:17.691Z,44.70
2023-04-19T06:40:12.189Z,44.60
2023-04-19T06:43:05.902Z,44.60
2023-04-19T06:45:59.633Z,44.50
2023-04-19T06:48:53.315Z,44.50
2023-04-19T06:51:46.751Z,44.40
2023-04-19T06:54:41.903Z,44.40
2023-04-19T06:57:35.175Z,44.40
2023-04-19T07:00:28.458Z,44.40
2023-04-19T07:03:21.243Z,44.50
2023-04-19T07:06:14.692Z,44.40
2023-04-19T07:09:09.262Z,44.30
2023-04-19T07:12:03.807Z,44.30
2023-04-19T07:14:57.349Z,44.70
2023-04-19T07:17:50.172Z,44.30
2023-04-19T07:20:48.484Z,44.20
2023-04-19T07:23:41.294Z,44.10
2023-04-19T07:26:34.723Z,44.20
2023-04-19T07:29:30.129Z,44.50
2023-04-19T07:32:23.237Z,44.70
2023-04-19T07:35:16.267Z,44.90
2023-04-19T07:38:09.459Z,45.80
2023-04-19T07:41:02.444Z,45.30
2023-04-19T07:43:55.336Z,45.50
2023-04-19T07:46:49.982Z,45.60
2023-04-19T07:49:44.349Z,45.90
2023-04-19T07:52:37.324Z,46.10
2023-04-19T07:55:30.445Z,46.20
2023-04-19T07:58:23.631Z,46.20
2023-04-19T08:01:17.394Z,46.40
2023-04-19T08:04:12.213Z,46.30
2023-04-19T08:07:05.462Z,46.40
2023-04-19T08:09:58.279Z,46.60
2023-04-19T08:16:27.063Z,46.80
2023-04-19T08:19:03.501Z,46.90
2023-04-19T08:21:57.723Z,47.30
2023-04-19T08:24:51.859Z,47.10
2023-04-19T08:27:45.486Z,47.10
2023-04-19T08:30:38.681Z,47.80
2023-04-19T08:33:32.456Z,47.60
2023-04-19T08:36:36.021Z,47.10
2023-04-19T08:39:33.921Z,46.70
2023-04-19T08:42:35.484Z,46.50
2023-04-19T08:45:31.406Z,46.20
2023-04-19T08:48:25.551Z,46.10
2023-04-19T08:51:19.792Z,46.00
2023-04-19T08:54:13.314Z,46.00
2023-04-19T08:57:08.549Z,38.90
2023-04-19T09:00:02.631Z,40.80
2023-04-19T09:02:55.976Z,41.10
2023-04-19T09:05:49.527Z,42.00
2023-04-19T09:08:43.073Z,42.80
2023-04-19T09:11:38.724Z,43.40
2023-04-19T09:14:33.953Z,43.60
2023-04-19T09:17:27.602Z,44.00
2023-04-19T09:20:37.219Z,44.40
2023-04-19T09:23:30.470Z,44.60
2023-04-19T09:26:23.902Z,44.80
2023-04-19T09:29:18.393Z,44.90
2023-04-19T09:32:13.086Z,45.10
2023-04-19T09:35:07.421Z,45.20
2023-04-19T09:38:06.305Z,45.40
2023-04-19T09:41:10.401Z,45.40
2023-04-19T09:44:47.385Z,45.50
2023-04-19T09:47:27.042Z,45.50
2023-04-19T09:50:25.093Z,45.50
2023-04-19T09:53:21.625Z,45.50
2023-04-19T09:56:14.493Z,45.50
2023-04-19T09:59:20.831Z,47.60
2023-04-19T10:02:15.392Z,45.60
2023-04-19T10:05:20.831Z,45.60
2023-04-19T10:08:15.616Z,45.70
2023-04-19T10:11:08.914Z,45.80
2023-04-19T10:14:06.535Z,45.90
2023-04-19T10:17:00.690Z,45.90
2023-04-19T10:20:02.771Z,46.10
2023-04-19T10:22:58.479Z,46.20
2023-04-19T10:25:56.956Z,46.30
2023-04-19T10:28:50.584Z,46.50
2023-04-19T10:31:43.636Z,46.40
2023-04-19T10:34:41.030Z,46.70
2023-04-19T10:37:34.736Z,46.60
2023-04-19T10:41:03.877Z,46.70
2023-04-19T10:44:11.161Z,46.80
2023-04-19T10:47:06.904Z,46.90
2023-04-19T10:50:00.454Z,46.80
2023-04-19T10:52:53.285Z,46.80
2023-04-19T10:55:51.991Z,46.70
2023-04-19T10:59:24.847Z,46.80
2023-04-19T11:02:30.781Z,46.80
2023-04-19T11:05:24.346Z,46.70
2023-04-19T11:08:24.145Z,46.70
2023-04-19T11:11:17.754Z,46.60
2023-04-19T11:14:11.007Z,46.60
2023-04-19T11:17:14.891Z,46.50
2023-04-19T11:20:11.887Z,46.20
2023-04-19T11:23:17.789Z,46.00
2023-04-19T11:26:12.003Z,45.80
2023-04-19T11:29:06.283Z,45.80
2023-04-19T11:32:01.543Z,45.60
2023-04-19T11:34:54.181Z,45.50
2023-04-19T11:37:49.004Z,45.40
2023-04-19T11:40:42.951Z,45.20
2023-04-19T11:43:36.741Z,45.10
2023-04-19T11:46:29.355Z,45.00
2023-04-19T11:49:27.128Z,44.90
2023-04-19T11:52:24.853Z,44.90
2023-04-19T11:55:21.576Z,44.80
2023-04-19T11:58:29.301Z,44.70
2023-04-19T12:01:24.938Z,44.60
2023-04-19T12:04:18.707Z,44.60
2023-04-19T12:07:12.872Z,44.50
2023-04-19T12:10:11.358Z,44.50
2023-04-19T12:13:19.523Z,44.50
2023-04-19T12:16:13.136Z,44.40
2023-04-19T12:19:13.887Z,44.40
2023-04-19T12:22:15.695Z,44.50
2023-04-19T12:25:09.341Z,44.50
2023-04-19T12:28:05.089Z,44.50
2023-04-19T12:30:59.765Z,43.10
2023-04-19T12:33:52.300Z,38.00
2023-04-19T12:36:45.588Z,35.50
2023-04-19T12:39:38.610Z,34.50
2023-04-19T12:42:31.578Z,32.80
2023-04-19T12:45:24.757Z,33.90
2023-04-19T12:48:19.145Z,32.30
2023-04-19T12:51:12.742Z,33.30
2023-04-19T12:54:07.396Z,34.20
2023-04-19T12:57:03.391Z,33.30
2023-04-19T12:59:56.721Z,34.30
2023-04-19T13:02:49.384Z,34.70
2023-04-19T13:05:43.558Z,35.10
2023-04-19T13:08:44.707Z,35.20
2023-04-19T13:11:40.385Z,36.20
2023-04-19T13:14:33.640Z,36.10
2023-04-19T13:17:26.753Z,35.80
2023-04-19T13:20:20.688Z,36.30
2023-04-19T13:23:16.302Z,36.40
2023-04-19T13:26:09.802Z,36.70
2023-04-19T13:29:02.843Z,36.30
2023-04-19T13:31:55.813Z,35.60
2023-04-19T13:34:48.795Z,36.20
2023-04-19T13:37:44.269Z,35.60
2023-04-19T13:40:39.014Z,35.70
2023-04-19T13:43:32.497Z,35.30
2023-04-19T13:46:26.013Z,35.60
2023-04-19T13:49:20.019Z,34.20
2023-04-19T13:52:13.405Z,35.50
2023-04-19T13:55:07.220Z,34.50
2023-04-19T13:58:03.550Z,35.50
2023-04-19T14:00:57.227Z,35.20
2023-04-19T14:03:50.969Z,35.40
2023-04-19T14:06:44.864Z,35.70
2023-04-19T14:09:37.931Z,35.50
2023-04-19T14:12:31.829Z,35.60
2023-04-19T14:15:26.357Z,35.40
2023-04-19T14:18:19.650Z,35.80
2023-04-19T14:21:12.354Z,35.40
2023-04-19T14:24:06.395Z,35.20
2023-04-19T14:27:10.364Z,34.70
2023-04-19T14:30:05.763Z,34.50
2023-04-19T14:33:00.343Z,34.70
2023-04-19T14:35:54.046Z,34.00
2023-04-19T14:38:47.774Z,34.10
2023-04-19T14:41:41.200Z,34.30
2023-04-19T14:44:34.552Z,34.20
2023-04-19T14:47:27.921Z,33.60
2023-04-19T14:50:22.865Z,35.10
2023-04-19T14:53:16.138Z,35.40
2023-04-19T14:56:09.995Z,34.50
2023-04-19T14:59:03.720Z,35.50
2023-04-19T15:01:57.109Z,35.40
2023-04-19T15:04:51.004Z,34.70
2023-04-19T15:07:45.881Z,35.30
2023-04-19T15:10:39.535Z,35.70
2023-04-19T15:13:33.865Z,35.90
2023-04-19T15:16:26.873Z,34.70
2023-04-19T15:19:19.823Z,35.40
2023-04-19T15:22:12.473Z,35.50
2023-04-19T15:25:07.551Z,35.80
2023-04-19T15:28:00.737Z,33.40
2023-04-19T15:30:59.692Z,35.90
2023-04-19T15:33:52.904Z,35.50
2023-04-19T15:36:45.701Z,36.30
2023-04-19T15:39:38.836Z,35.10
2023-04-19T15:42:32.856Z,35.90
2023-04-19T15:45:25.955Z,36.10
2023-04-19T15:48:20.483Z,36.50
2023-04-19T15:51:15.249Z,36.10
2023-04-19T15:54:08.862Z,35.50
2023-04-19T15:57:01.769Z,35.90
2023-04-19T15:59:56.039Z,35.10
2023-04-19T16:02:49.730Z,35.90
2023-04-19T16:05:42.844Z,36.50
2023-04-19T16:08:35.693Z,36.30
2023-04-19T16:11:29.563Z,35.10
2023-04-19T16:14:22.783Z,34.80
2023-04-19T16:17:17.138Z,36.10
2023-04-19T16:20:11.125Z,35.60
2023-04-19T16:23:04.763Z,35.70
2023-04-19T16:25:57.475Z,36.80
2023-04-19T16:28:50.877Z,36.90
2023-04-19T16:31:44.270Z,36.50
2023-04-19T16:34:39.037Z,36.20
2023-04-19T16:37:32.017Z,36.00
2023-04-19T16:40:25.058Z,36.30
2023-04-19T16:43:17.770Z,36.70
2023-04-19T16:46:11.043Z,36.90
2023-04-19T16:49:04.579Z,37.10
2023-04-19T16:51:59.032Z,37.40
2023-04-19T16:54:51.740Z,37.50
2023-04-19T16:57:44.514Z,37.70
2023-04-19T17:00:38.162Z,38.00
2023-04-19T17:03:32.136Z,38.20
2023-04-19T17:06:26.170Z,38.60
2023-04-19T17:09:21.112Z,38.80
2023-04-19T17:12:15.149Z,38.90
2023-04-19T17:15:09.444Z,38.90
2023-04-19T17:18:04.010Z,38.90
2023-04-19T17:20:56.972Z,38.90
2023-04-19T17:23:49.976Z,39.00
2023-04-19T17:26:43.972Z,39.00
2023-04-19T17:29:37.268Z,39.00
2023-04-19T17:32:30.761Z,39.00
2023-04-19T17:35:23.809Z,39.10
2023-04-19T17:38:16.858Z,39.10
2023-04-19T17:41:15.962Z,39.20
2023-04-19T17:44:09.959Z,39.20
2023-04-19T17:47:02.804Z,39.20
2023-04-19T17:50:06.616Z,39.30
2023-04-19T17:53:00.252Z,39.30
2023-04-19T17:55:53.830Z,39.40
2023-04-19T17:58:47.049Z,39.30
2023-04-19T18:01:41.362Z,39.50
2023-04-19T18:04:34.623Z,39.50
2023-04-19T18:07:27.671Z,39.40
2023-04-19T18:10:20.715Z,39.50
2023-04-19T18:13:13.899Z,39.50
2023-04-19T18:16:07.746Z,39.50
2023-04-19T18:19:02.154Z,39.50
2023-04-19T18:21:55.971Z,39.50
2023-04-19T18:24:51.079Z,39.60
2023-04-19T18:27:43.782Z,39.70
2023-04-19T18:30:36.853Z,39.80
2023-04-19T18:33:29.940Z,39.90
2023-04-19T18:36:24.020Z,40.10
2023-04-19T18:39:18.739Z,40.20
2023-04-19T18:42:11.726Z,40.30
2023-04-19T18:45:05.933Z,40.30
2023-04-19T18:48:01.105Z,40.30
2023-04-19T18:50:54.939Z,40.40
2023-04-19T18:53:50.114Z,39.70
2023-04-19T18:57:11.659Z,38.60
2023-04-19T18:59:57.186Z,38.80
2023-04-19T19:02:51.141Z,39.10
2023-04-19T19:05:44.921Z,39.20
2023-04-19T19:08:37.721Z,38.90
2023-04-19T19:14:28.933Z,39.00
2023-04-19T19:17:24.185Z,38.80
2023-04-19T19:20:17.819Z,38.80
2023-04-19T19:23:12.822Z,38.80
2023-04-19T19:26:05.597Z,39.10
2023-04-19T19:29:01.234Z,39.10
2023-04-19T19:31:54.719Z,39.20
2023-04-19T19:37:45.713Z,39.20
2023-04-19T19:41:04.057Z,39.20
2023-04-19T19:43:51.557Z,38.90
2023-04-19T19:46:46.231Z,39.10
2023-04-19T19:50:04.678Z,39.30
2023-04-19T19:52:52.846Z,39.50
2023-04-19T19:55:46.042Z,39.50
2023-04-19T19:58:49.415Z,39.60
2023-04-19T20:01:46.521Z,40.40
2023-04-19T20:04:40.045Z,39.60
2023-04-19T20:07:53.542Z,39.70
2023-04-19T20:10:45.972Z,39.80
2023-04-19T20:13:38.594Z,39.60
2023-04-19T20:16:31.892Z,39.80
2023-04-19T20:19:26.352Z,39.90
2023-04-19T20:22:19.890Z,39.90
2023-04-19T20:25:13.565Z,39.90
2023-04-19T20:28:06.875Z,39.80
2023-04-19T20:30:59.774Z,39.30
2023-04-19T20:33:52.825Z,39.50
2023-04-19T20:36:47.505Z,39.40
2023-04-19T20:39:41.190Z,39.10
2023-04-19T20:42:34.038Z,39.20
2023-04-19T20:45:27.582Z,39.20
2023-04-19T20:48:21.047Z,39.60
2023-04-19T20:51:15.273Z,39.80
2023-04-19T20:54:10.504Z,39.90
2023-04-19T20:57:04.765Z,39.80
2023-04-19T20:59:57.994Z,38.80
2023-04-19T21:02:51.702Z,38.70
2023-04-19T21:05:45.274Z,37.80
2023-04-19T21:08:38.717Z,38.70
2023-04-19T21:11:33.486Z,39.40
2023-04-19T21:14:26.889Z,39.50
2023-04-19T21:17:20.141Z,39.60
2023-04-19T21:20:14.576Z,39.90
2023-04-19T21:23:08.184Z,39.90
2023-04-19T21:26:02.466Z,39.80
2023-04-19T21:28:57.456Z,39.70
2023-04-19T21:31:51.222Z,39.60
2023-04-19T21:34:45.088Z,39.50
2023-04-19T21:37:38.239Z,39.40
2023-04-19T21:40:31.129Z,39.40
2023-04-19T21:43:24.124Z,39.30
2023-04-19T21:46:18.018Z,39.20
2023-04-19T21:49:10.946Z,39.20
2023-04-19T21:52:04.078Z,39.20
2023-04-19T21:54:56.958Z,39.00
2023-04-19T21:57:50.184Z,39.00
2023-04-19T22:00:43.489Z,38.90
2023-04-19T22:03:39.355Z,38.90
2023-04-19T22:06:33.491Z,38.80
2023-04-19T22:09:26.797Z,38.80
2023-04-19T22:12:20.078Z,38.70
2023-04-19T22:15:13.379Z,38.70
2023-04-19T22:18:08.151Z,38.70
2023-04-19T22:21:02.360Z,38.60
2023-04-19T22:23:55.939Z,38.60
2023-04-19T22:26:49.945Z,38.50
2023-04-19T22:29:42.601Z,38.50
2023-04-19T22:32:35.885Z,38.40
2023-04-19T22:35:29.013Z,38.40
2023-04-19T22:38:23.614Z,38.30
2023-04-19T22:41:16.949Z,38.30
2023-04-19T22:44:10.129Z,38.20
2023-04-19T22:47:03.461Z,38.20
2023-04-19T22:49:57.014Z,38.20
2023-04-19T22:52:49.847Z,38.20
2023-04-19T22:55:44.383Z,38.20
2023-04-19T22:58:37.935Z,38.10
2023-04-19T23:01:31.069Z,38.00
2023-04-19T23:04:24.074Z,37.90
2023-04-19T23:07:19.845Z,37.90
2023-04-19T23:10:13.231Z,37.90
2023-04-19T23:13:10.047Z,37.90
2023-04-19T23:16:03.082Z,37.80
2023-04-19T23:18:56.706Z,37.80
2023-04-19T23:21:50.322Z,37.70
2023-04-19T23:24:42.922Z,37.70
2023-04-19T23:27:36.429Z,37.60
2023-04-19T23:30:32.003Z,37.60
2023-04-19T23:33:24.984Z,37.60
2023-04-19T23:36:18.202Z,38.10
2023-04-19T23:39:11.150Z,37.50
2023-04-19T23:42:03.979Z,37.50
2023-04-19T23:44:57.390Z,37.50
2023-04-19T23:47:51.323Z,37.50
2023-04-19T23:50:45.058Z,37.50
2023-04-19T23:53:38.668Z,37.40
2023-04-19T23:56:32.125Z,37.40
2023-04-19T23:59:26.769Z,37.40
